Cruzeiro do Oeste, Brazil
Current Conditions -  °F | °C
As of 2:00 PM on Saturday 20 Dec 2014 (Local Time) from SBMG Reporting Station
Broken Clouds Broken Clouds  
Wind Chill: 88°   Ceiling: 3500
Heat Index: 94°   Visibility: 6mi
Dew Point: 72°   Wind: 14mph
Humidity: 58%   Direction: 10°N
Pressure: 29.83"   Gusts: NA
Location:  23.79°S, 53.07°W
Report Text: SBMG 201600Z 01012KT 9999 BKN035 31/22 Q1010
Loading
Personal Weather Stations






























Interactive Weather Map New forecast layout! Learn more

10-Day Weather Forecast

Advertisements
Track Severe Weather on mobile